Time;durP1;ratioP1;P1;durP2;ratioP2;P2;SDS_P1;SDS_P2;PMS_P1;PMS_P2;Temp;Humidity;BMP_temperature;BMP_pressure;BME280_temperature;BME280_humidity;BME280_pressure;Samples;Min_cycle;Max_cycle;Signal;HPM_P1;HPM_P2
2023/04/17 00:00:09;;;;;;;23.90;13.13;;;8.40;99.90;;;;;;4210091;28;21076;-76
2023/04/17 00:02:11;;;;;;;21.77;12.77;;;8.40;99.90;;;;;;4207906;28;20213;-76
2023/04/17 00:04:13;;;;;;;21.40;12.87;;;8.30;99.90;;;;;;4219522;28;20462;-76
2023/04/17 00:06:15;;;;;;;21.60;13.00;;;8.40;99.90;;;;;;4209677;28;20232;-76
2023/04/17 00:08:17;;;;;;;21.80;13.07;;;8.40;99.90;;;;;;4196495;28;20242;-76
2023/04/17 00:10:18;;;;;;;21.37;12.60;;;8.40;99.90;;;;;;4208426;28;20259;-76
2023/04/17 00:12:20;;;;;;;20.33;12.17;;;8.40;99.90;;;;;;4191178;28;20198;-76
2023/04/17 00:14:22;;;;;;;23.87;13.70;;;8.40;99.90;;;;;;4191792;28;20238;-76
2023/04/17 00:16:26;;;;;;;22.10;12.77;;;8.40;99.90;;;;;;4207588;28;20221;-76
2023/04/17 00:18:28;;;;;;;21.77;13.20;;;8.40;99.90;;;;;;4190224;28;20229;-76
2023/04/17 00:20:30;;;;;;;20.73;12.57;;;8.30;99.90;;;;;;4210661;28;20236;-76
2023/04/17 00:22:32;;;;;;;20.03;11.97;;;8.40;99.90;;;;;;4208147;28;20202;-76
2023/04/17 00:24:34;;;;;;;19.87;12.13;;;8.40;99.90;;;;;;4212665;28;20209;-76
2023/04/17 00:26:36;;;;;;;24.17;12.90;;;8.40;99.90;;;;;;4204852;28;20206;-76
2023/04/17 00:28:38;;;;;;;22.67;12.80;;;8.30;99.90;;;;;;4204581;28;20232;-76
2023/04/17 00:30:40;;;;;;;19.90;12.83;;;8.30;99.90;;;;;;4217482;28;20232;-76
2023/04/17 00:32:43;;;;;;;22.27;12.27;;;8.40;99.90;;;;;;4188120;28;20498;-76
2023/04/17 00:34:45;;;;;;;21.13;13.30;;;8.30;99.90;;;;;;4211454;28;20205;-77
2023/04/17 00:36:47;;;;;;;22.00;13.53;;;8.30;99.90;;;;;;4209259;28;20264;-76
2023/04/17 00:38:49;;;;;;;21.03;12.00;;;8.30;99.90;;;;;;4218983;28;20308;-76
2023/04/17 00:40:51;;;;;;;21.77;13.20;;;8.30;99.90;;;;;;4215441;28;20723;-76
2023/04/17 00:42:55;;;;;;;19.83;11.93;;;8.30;99.90;;;;;;4212597;28;20503;-76
2023/04/17 00:44:57;;;;;;;20.53;12.73;;;8.30;99.90;;;;;;4209321;28;20718;-77
2023/04/17 00:46:59;;;;;;;21.53;12.80;;;8.30;99.90;;;;;;4209949;28;20368;-76
2023/04/17 00:49:02;;;;;;;19.77;10.90;;;8.30;99.90;;;;;;4208242;28;20677;-76
2023/04/17 00:51:04;;;;;;;19.30;11.63;;;8.30;99.90;;;;;;4215559;28;20236;-76
2023/04/17 00:53:07;;;;;;;18.83;11.70;;;8.30;99.90;;;;;;4209143;28;20468;-76
2023/04/17 00:55:09;;;;;;;19.70;11.60;;;8.30;99.90;;;;;;4212907;28;21008;-76
2023/04/17 00:57:12;;;;;;;19.70;11.47;;;8.30;99.90;;;;;;4205621;28;20226;-76
2023/04/17 00:59:17;;;;;;;17.23;10.63;;;8.30;99.90;;;;;;4210493;28;20766;-76
2023/04/17 01:01:21;;;;;;;18.43;11.00;;;8.30;99.90;;;;;;4206680;28;21374;-76
2023/04/17 01:03:23;;;;;;;17.70;10.93;;;8.30;99.90;;;;;;4209517;28;20538;-77
2023/04/17 01:05:28;;;;;;;18.07;11.00;;;8.30;99.90;;;;;;4207457;28;20292;-76
2023/04/17 01:07:30;;;;;;;19.33;11.50;;;8.30;99.90;;;;;;4212766;28;20296;-76
2023/04/17 01:09:32;;;;;;;18.33;10.77;;;8.30;99.90;;;;;;4205946;28;20338;-76
2023/04/17 01:11:35;;;;;;;18.27;10.60;;;8.30;99.90;;;;;;4205813;28;20494;-76
2023/04/17 01:13:45;;;;;;;18.07;10.67;;;8.30;99.90;;;;;;4205429;28;20305;-77
2023/04/17 01:15:49;;;;;;;19.33;10.87;;;8.30;99.90;;;;;;4209092;28;20698;-77
2023/04/17 01:17:51;;;;;;;20.30;11.50;;;8.30;99.90;;;;;;4212347;28;20663;-76
2023/04/17 01:19:53;;;;;;;19.07;11.63;;;8.20;99.90;;;;;;4206100;28;20455;-77
2023/04/17 01:21:56;;;;;;;17.83;10.90;;;8.20;99.90;;;;;;4204532;28;20454;-77
2023/04/17 01:24:02;;;;;;;18.47;10.77;;;8.20;99.90;;;;;;4208932;28;20964;-77
2023/04/17 01:26:04;;;;;;;18.57;10.47;;;8.20;99.90;;;;;;4210065;28;20218;-76
2023/04/17 01:28:06;;;;;;;19.17;10.70;;;8.20;99.90;;;;;;4208895;28;21343;-77
2023/04/17 01:30:09;;;;;;;16.63;10.90;;;8.20;99.90;;;;;;4210890;28;20467;-76
2023/04/17 01:32:11;;;;;;;19.23;10.57;;;8.20;99.90;;;;;;4208365;28;20475;-77
2023/04/17 01:34:13;;;;;;;16.57;9.93;;;8.20;99.90;;;;;;4211395;28;20309;-76
2023/04/17 01:36:15;;;;;;;20.83;12.03;;;8.20;99.90;;;;;;4208733;28;20862;-76
2023/04/17 01:38:17;;;;;;;17.70;10.30;;;8.20;99.90;;;;;;4209197;28;21015;-77
2023/04/17 01:40:20;;;;;;;22.23;11.67;;;8.20;99.90;;;;;;4209684;28;20679;-76
2023/04/17 01:42:23;;;;;;;19.43;11.23;;;8.20;99.90;;;;;;4212242;28;20260;-77
2023/04/17 01:44:25;;;;;;;17.67;11.27;;;8.10;99.90;;;;;;4209310;28;20742;-78
2023/04/17 01:46:27;;;;;;;20.60;11.50;;;8.10;99.90;;;;;;4205373;28;20209;-76
2023/04/17 01:48:28;;;;;;;20.43;12.27;;;8.10;99.90;;;;;;4208538;28;20569;-76
2023/04/17 01:50:30;;;;;;;20.97;12.60;;;8.10;99.90;;;;;;4212437;28;20299;-76
2023/04/17 01:52:32;;;;;;;18.70;11.77;;;8.10;99.90;;;;;;4209008;28;20289;-76
2023/04/17 01:54:34;;;;;;;23.03;12.57;;;8.10;99.90;;;;;;4215084;28;20463;-76
2023/04/17 01:56:37;;;;;;;22.60;12.90;;;8.10;99.90;;;;;;4209580;28;20308;-76
2023/04/17 01:58:39;;;;;;;20.27;11.77;;;8.10;99.90;;;;;;4212184;28;20229;-75
2023/04/17 02:00:41;;;;;;;20.90;11.93;;;8.10;99.90;;;;;;4216643;28;20465;-76
2023/04/17 02:02:43;;;;;;;22.80;12.23;;;8.00;99.90;;;;;;4216604;28;20465;-77
2023/04/17 02:04:45;;;;;;;21.43;12.20;;;8.00;99.90;;;;;;4212549;28;20466;-76
2023/04/17 02:06:50;;;;;;;19.67;12.50;;;8.00;99.90;;;;;;4218442;28;20304;-76
2023/04/17 02:08:52;;;;;;;20.83;12.37;;;8.00;99.90;;;;;;4209422;28;21127;-76
2023/04/17 02:10:53;;;;;;;21.10;12.20;;;8.00;99.90;;;;;;4211403;28;20563;-77
2023/04/17 02:12:57;;;;;;;20.33;11.87;;;8.00;99.90;;;;;;4210660;28;20233;-76
2023/04/17 02:14:59;;;;;;;21.13;12.23;;;8.00;99.90;;;;;;4209564;28;20959;-76
2023/04/17 02:17:02;;;;;;;21.83;12.10;;;8.00;99.90;;;;;;4206301;28;20697;-76
2023/04/17 02:19:04;;;;;;;22.97;13.00;;;8.00;99.90;;;;;;4214735;28;20319;-76
2023/04/17 02:21:06;;;;;;;22.17;13.00;;;8.00;99.90;;;;;;4214001;28;20463;-76
2023/04/17 02:23:14;;;;;;;23.07;12.00;;;7.90;99.90;;;;;;4211482;28;20200;-76
2023/04/17 02:25:16;;;;;;;23.83;13.07;;;7.90;99.90;;;;;;4211133;28;20538;-76
2023/04/17 02:27:18;;;;;;;25.30;13.50;;;7.90;99.90;;;;;;4214422;28;20206;-76
2023/04/17 02:29:22;;;;;;;28.93;14.60;;;8.00;99.90;;;;;;4209868;28;20983;-76
2023/04/17 02:31:24;;;;;;;25.87;14.30;;;7.90;99.90;;;;;;4210428;28;20479;-76
2023/04/17 02:33:26;;;;;;;26.50;14.27;;;7.90;99.90;;;;;;4210481;28;20198;-76
2023/04/17 02:35:29;;;;;;;24.07;13.97;;;7.90;99.90;;;;;;4215705;28;20198;-76
2023/04/17 02:37:31;;;;;;;24.50;14.17;;;7.90;99.90;;;;;;4216410;28;20482;-76
2023/04/17 02:39:34;;;;;;;24.67;13.80;;;7.90;99.90;;;;;;4210882;28;20229;-76
2023/04/17 02:41:35;;;;;;;24.33;13.63;;;7.90;99.90;;;;;;4197314;28;20459;-76
2023/04/17 02:43:37;;;;;;;24.93;13.73;;;7.90;99.90;;;;;;4214504;28;20228;-76
2023/04/17 02:45:41;;;;;;;27.67;15.03;;;7.90;99.90;;;;;;4209240;28;20460;-76
2023/04/17 02:47:43;;;;;;;24.50;13.13;;;7.90;99.90;;;;;;4205746;28;20487;-76
2023/04/17 02:49:45;;;;;;;25.43;13.17;;;7.90;99.90;;;;;;4208512;28;20854;-76
2023/04/17 02:51:46;;;;;;;21.87;12.83;;;7.90;99.90;;;;;;4213470;28;20487;-76
2023/04/17 02:53:49;;;;;;;22.40;12.80;;;7.90;99.90;;;;;;4205454;28;20586;-76
2023/04/17 02:55:50;;;;;;;22.70;12.53;;;7.90;99.90;;;;;;4209428;28;20450;-76
2023/04/17 02:57:52;;;;;;;24.60;13.37;;;7.90;99.90;;;;;;4201554;28;20522;-76
2023/04/17 02:59:54;;;;;;;24.27;13.47;;;7.80;99.90;;;;;;4211808;28;20455;-76
2023/04/17 03:01:58;;;;;;;28.20;14.47;;;7.80;99.90;;;;;;4216323;28;20454;-75
2023/04/17 03:04:00;;;;;;;23.47;13.30;;;7.80;99.90;;;;;;4211512;28;20447;-76
2023/04/17 03:06:02;;;;;;;23.53;12.83;;;7.80;99.90;;;;;;4211499;28;20205;-76
2023/04/17 03:08:05;;;;;;;22.47;12.50;;;7.80;99.90;;;;;;4214313;28;20526;-76
2023/04/17 03:10:08;;;;;;;23.93;13.20;;;7.80;99.90;;;;;;4193508;28;20456;-76
2023/04/17 03:12:10;;;;;;;21.40;12.93;;;7.80;99.90;;;;;;4203765;28;20926;-76
2023/04/17 03:14:12;;;;;;;23.40;13.30;;;7.80;99.90;;;;;;4211277;28;20563;-75
2023/04/17 03:16:14;;;;;;;26.27;13.30;;;7.80;99.90;;;;;;4211877;28;20197;-76
2023/04/17 03:18:17;;;;;;;27.27;14.20;;;7.80;99.90;;;;;;4207857;28;20717;-76
2023/04/17 03:20:19;;;;;;;22.30;12.77;;;7.80;99.90;;;;;;4210447;28;20492;-76
2023/04/17 03:22:21;;;;;;;25.47;14.03;;;7.80;99.90;;;;;;4186468;28;20625;-76
2023/04/17 03:24:23;;;;;;;26.73;13.60;;;7.80;99.90;;;;;;4212881;28;20965;-76
2023/04/17 03:26:25;;;;;;;26.80;13.20;;;7.80;99.90;;;;;;4206956;28;20983;-76
2023/04/17 03:28:27;;;;;;;23.70;12.83;;;7.80;99.90;;;;;;4210813;28;20499;-76
2023/04/17 03:30:29;;;;;;;22.80;13.60;;;7.80;99.90;;;;;;4207433;28;20667;-76
2023/04/17 03:32:31;;;;;;;24.13;13.30;;;7.80;99.90;;;;;;4184511;28;20524;-76
2023/04/17 03:34:34;;;;;;;29.40;14.87;;;7.70;99.90;;;;;;4209329;28;20240;-76
2023/04/17 03:36:36;;;;;;;26.07;13.63;;;7.70;99.90;;;;;;4188523;28;20208;-76
2023/04/17 03:38:38;;;;;;;26.30;13.63;;;7.70;99.90;;;;;;4186776;28;20938;-76
2023/04/17 03:40:40;;;;;;;24.70;13.70;;;7.70;99.90;;;;;;4208355;28;20460;-77
2023/04/17 03:42:42;;;;;;;22.80;12.80;;;7.70;99.90;;;;;;4190309;28;20786;-76
2023/04/17 03:44:45;;;;;;;26.27;14.47;;;7.70;99.90;;;;;;4213898;28;20511;-76
2023/04/17 03:46:47;;;;;;;27.27;13.70;;;7.70;99.90;;;;;;4182755;28;20487;-76
2023/04/17 03:48:49;;;;;;;25.43;13.50;;;7.70;99.90;;;;;;4206829;28;20244;-74
2023/04/17 03:50:52;;;;;;;24.97;13.53;;;7.70;99.90;;;;;;4195558;28;20467;-75
2023/04/17 03:52:57;;;;;;;25.17;13.73;;;7.70;99.90;;;;;;4205728;28;20231;-76
2023/04/17 03:54:59;;;;;;;26.80;14.10;;;7.70;99.90;;;;;;4211561;28;20451;-75
2023/04/17 03:57:02;;;;;;;24.33;13.20;;;7.70;99.90;;;;;;4207357;28;20455;-75
2023/04/17 03:59:04;;;;;;;23.93;13.17;;;7.70;99.90;;;;;;4210530;28;20221;-75
2023/04/17 04:01:09;;;;;;;23.40;13.50;;;7.70;99.90;;;;;;4212240;28;20446;-75
2023/04/17 04:03:11;;;;;;;22.60;13.07;;;7.70;99.90;;;;;;4211589;28;20447;-75
2023/04/17 04:05:13;;;;;;;25.80;13.80;;;7.70;99.90;;;;;;4212777;28;20483;-76
2023/04/17 04:07:17;;;;;;;26.47;14.47;;;7.70;99.90;;;;;;4213551;28;20504;-75
2023/04/17 04:09:18;;;;;;;26.67;14.93;;;7.70;99.90;;;;;;4207897;28;20471;-75
2023/04/17 04:11:20;;;;;;;28.53;15.17;;;7.70;99.90;;;;;;4210411;28;20558;-75
2023/04/17 04:13:22;;;;;;;25.13;14.27;;;7.70;99.90;;;;;;4207180;28;20197;-75
2023/04/17 04:15:24;;;;;;;29.70;15.00;;;7.60;99.90;;;;;;4209948;28;20500;-75
2023/04/17 04:17:26;;;;;;;29.47;15.60;;;7.60;99.90;;;;;;4192347;28;20857;-75
2023/04/17 04:19:28;;;;;;;27.97;14.40;;;7.60;99.90;;;;;;4213608;28;20286;-75
2023/04/17 04:21:30;;;;;;;27.93;14.70;;;7.60;99.90;;;;;;4208711;28;20554;-75
2023/04/17 04:23:36;;;;;;;25.97;14.87;;;7.60;99.90;;;;;;4205868;28;20523;-75
2023/04/17 04:25:40;;;;;;;29.17;15.83;;;7.60;99.90;;;;;;4214414;28;20913;-75
2023/04/17 04:27:48;;;;;;;32.93;15.57;;;7.60;99.90;;;;;;4207569;28;20467;-75
2023/04/17 04:29:50;;;;;;;26.97;14.63;;;7.60;99.90;;;;;;4210664;28;20445;-76
2023/04/17 04:31:52;;;;;;;28.47;15.40;;;7.60;99.90;;;;;;4193400;28;20448;-75
2023/04/17 04:33:54;;;;;;;30.37;15.70;;;7.60;99.90;;;;;;4202954;28;20229;-75
2023/04/17 04:36:00;;;;;;;27.67;14.80;;;7.60;99.90;;;;;;4208382;28;20212;-76
2023/04/17 04:38:03;;;;;;;29.67;16.10;;;7.60;99.90;;;;;;4206292;28;21237;-75
2023/04/17 04:40:09;;;;;;;34.63;17.90;;;7.60;99.90;;;;;;4211853;28;20453;-76
2023/04/17 04:42:11;;;;;;;28.80;15.80;;;7.60;99.90;;;;;;4211818;28;20447;-75
2023/04/17 04:44:13;;;;;;;24.33;13.53;;;7.60;99.90;;;;;;4202693;28;20530;-75
2023/04/17 04:46:15;;;;;;;28.37;15.73;;;7.60;99.90;;;;;;4201624;28;20543;-75
2023/04/17 04:48:17;;;;;;;30.07;16.20;;;7.60;99.90;;;;;;4202067;28;20562;-75
2023/04/17 04:50:19;;;;;;;27.30;15.37;;;7.60;99.90;;;;;;4208963;28;20452;-75
2023/04/17 04:52:21;;;;;;;30.33;16.17;;;7.50;99.90;;;;;;4207039;28;20884;-75
2023/04/17 04:54:23;;;;;;;28.97;15.83;;;7.60;99.90;;;;;;4208267;28;20479;-75
2023/04/17 04:56:26;;;;;;;29.93;17.20;;;7.60;99.90;;;;;;4205705;28;20447;-75
2023/04/17 04:58:29;;;;;;;31.13;17.03;;;7.60;99.90;;;;;;4203127;28;20503;-75
2023/04/17 05:00:31;;;;;;;28.03;15.80;;;7.60;99.90;;;;;;4208464;28;20545;-76
2023/04/17 05:02:33;;;;;;;31.83;16.67;;;7.60;99.90;;;;;;4216595;28;21150;-75
2023/04/17 05:04:36;;;;;;;27.80;15.63;;;7.60;99.90;;;;;;4207040;28;20530;-75
2023/04/17 05:06:37;;;;;;;30.20;16.30;;;7.60;99.90;;;;;;4209942;28;20865;-75
2023/04/17 05:08:39;;;;;;;28.80;15.23;;;7.60;99.90;;;;;;4210777;28;20467;-75
2023/04/17 05:10:41;;;;;;;28.70;15.37;;;7.60;99.90;;;;;;4214692;28;20888;-75
2023/04/17 05:12:45;;;;;;;31.00;15.60;;;7.60;99.90;;;;;;4193350;28;21007;-75
2023/04/17 05:14:47;;;;;;;24.93;15.03;;;7.60;99.90;;;;;;4217186;28;20201;-75
2023/04/17 05:16:49;;;;;;;27.90;15.83;;;7.60;99.90;;;;;;4205470;28;20543;-76
2023/04/17 05:18:51;;;;;;;25.40;14.80;;;7.60;99.90;;;;;;4214059;28;20507;-75
2023/04/17 05:20:53;;;;;;;26.40;15.47;;;7.60;99.90;;;;;;4219634;28;20462;-75
2023/04/17 05:22:55;;;;;;;27.70;14.67;;;7.60;99.90;;;;;;4210679;28;20447;-75
2023/04/17 05:24:57;;;;;;;24.20;14.57;;;7.60;99.90;;;;;;4196275;28;20456;-75
2023/04/17 05:27:00;;;;;;;24.97;14.57;;;7.60;99.90;;;;;;4210928;28;20486;-75
2023/04/17 05:29:03;;;;;;;23.53;13.37;;;7.60;99.90;;;;;;4196185;28;20464;-75
2023/04/17 05:31:06;;;;;;;26.17;14.43;;;7.50;99.90;;;;;;4207549;28;20860;-75
2023/04/17 05:33:08;;;;;;;21.57;12.97;;;7.60;99.90;;;;;;4210713;28;20478;-74
2023/04/17 05:35:10;;;;;;;24.50;13.17;;;7.50;99.90;;;;;;4213306;28;20660;-75
2023/04/17 05:37:12;;;;;;;20.63;13.17;;;7.50;99.90;;;;;;4186911;28;20495;-75
2023/04/17 05:39:14;;;;;;;23.70;14.23;;;7.60;99.90;;;;;;4212376;28;20548;-75
2023/04/17 05:41:16;;;;;;;21.87;12.90;;;7.60;99.90;;;;;;4213335;28;20541;-75
2023/04/17 05:43:18;;;;;;;23.07;14.00;;;7.60;99.90;;;;;;4194223;28;20467;-74
2023/04/17 05:45:21;;;;;;;26.40;13.87;;;7.60;99.90;;;;;;4216883;28;21059;-75
2023/04/17 05:47:23;;;;;;;25.03;13.80;;;7.60;99.90;;;;;;4212433;28;20477;-76
2023/04/17 05:49:25;;;;;;;23.27;13.67;;;7.50;99.90;;;;;;4210295;28;21111;-75
2023/04/17 05:51:27;;;;;;;24.57;13.43;;;7.60;99.90;;;;;;4196025;28;20485;-75
2023/04/17 05:53:30;;;;;;;21.57;13.33;;;7.50;99.90;;;;;;4209706;28;20967;-75
2023/04/17 05:55:32;;;;;;;22.20;13.20;;;7.60;99.90;;;;;;4207577;28;20445;-75
2023/04/17 05:57:34;;;;;;;24.97;14.13;;;7.50;99.90;;;;;;4206374;28;20523;-75
2023/04/17 05:59:36;;;;;;;22.37;13.27;;;7.60;99.90;;;;;;4207245;28;20494;-74
2023/04/17 06:01:39;;;;;;;24.00;13.40;;;7.60;99.90;;;;;;4204783;28;20502;-75
2023/04/17 06:03:41;;;;;;;24.03;12.70;;;7.60;99.90;;;;;;4188682;28;20457;-75
2023/04/17 06:05:45;;;;;;;27.63;14.47;;;7.60;99.90;;;;;;4220589;28;20453;-75
2023/04/17 06:07:47;;;;;;;25.43;14.87;;;7.60;99.90;;;;;;4212093;28;20466;-75
2023/04/17 06:09:49;;;;;;;28.63;14.83;;;7.50;99.90;;;;;;4209961;28;20463;-76
2023/04/17 06:11:54;;;;;;;27.03;15.27;;;7.50;99.90;;;;;;4210911;28;20453;-76
2023/04/17 06:13:56;;;;;;;26.47;14.17;;;7.50;99.90;;;;;;4208034;28;20443;-75
2023/04/17 06:15:58;;;;;;;25.13;15.17;;;7.50;99.90;;;;;;4214145;28;20447;-75
2023/04/17 06:18:01;;;;;;;26.80;14.97;;;7.50;99.90;;;;;;4211589;28;20519;-75
2023/04/17 06:20:08;;;;;;;28.07;15.70;;;7.50;99.90;;;;;;4211585;28;20968;-75
2023/04/17 06:22:10;;;;;;;28.27;14.63;;;7.50;99.90;;;;;;4207787;28;20948;-75
2023/04/17 06:24:12;;;;;;;26.90;15.67;;;7.60;99.90;;;;;;4200966;28;20502;-75
2023/04/17 06:26:14;;;;;;;27.23;16.13;;;7.50;99.90;;;;;;4203678;28;20555;-75
2023/04/17 06:28:16;;;;;;;26.57;15.73;;;7.50;99.90;;;;;;4203980;28;20475;-75
2023/04/17 06:30:18;;;;;;;27.97;15.57;;;7.50;99.90;;;;;;4211394;28;20440;-75
2023/04/17 06:32:20;;;;;;;25.77;15.63;;;7.50;99.90;;;;;;4204502;28;20534;-75
2023/04/17 06:34:24;;;;;;;30.13;15.87;;;7.60;99.90;;;;;;4212539;28;20530;-75
2023/04/17 06:36:26;;;;;;;26.07;14.77;;;7.60;99.90;;;;;;4213530;28;20520;-75
2023/04/17 06:38:30;;;;;;;29.53;15.93;;;7.60;99.90;;;;;;4207525;28;20477;-76
2023/04/17 06:40:33;;;;;;;25.37;14.93;;;7.60;99.90;;;;;;4209009;28;20519;-75
2023/04/17 06:42:35;;;;;;;28.13;15.63;;;7.60;99.90;;;;;;4211612;28;20489;-75
2023/04/17 06:44:37;;;;;;;33.40;17.37;;;7.70;99.90;;;;;;4218567;28;20451;-74
2023/04/17 06:46:39;;;;;;;29.73;15.93;;;7.70;99.90;;;;;;4211955;28;20871;-74
2023/04/17 06:48:41;;;;;;;29.03;15.53;;;7.70;99.90;;;;;;4208187;28;20863;-75
2023/04/17 06:50:44;;;;;;;29.63;17.20;;;7.70;99.90;;;;;;4194530;28;20294;-74
2023/04/17 06:52:46;;;;;;;30.57;16.43;;;7.70;99.90;;;;;;4213566;28;20482;-75
2023/04/17 06:54:48;;;;;;;27.40;14.63;;;7.70;99.90;;;;;;4207208;28;20486;-75
2023/04/17 06:56:50;;;;;;;32.93;16.47;;;7.80;99.90;;;;;;4210005;28;20456;-75
2023/04/17 06:58:53;;;;;;;32.83;15.77;;;7.80;99.90;;;;;;4209428;28;20947;-75
2023/04/17 07:00:55;;;;;;;29.63;15.97;;;7.80;99.90;;;;;;4210772;28;20485;-75
2023/04/17 07:02:57;;;;;;;29.63;16.27;;;7.80;99.90;;;;;;4205707;28;20967;-75
2023/04/17 07:04:59;;;;;;;31.37;16.43;;;7.80;99.90;;;;;;4201928;28;20214;-75
2023/04/17 07:07:02;;;;;;;29.43;15.73;;;7.90;99.90;;;;;;4209676;28;20679;-75
2023/04/17 07:09:05;;;;;;;26.77;16.00;;;7.90;99.90;;;;;;4210082;28;21079;-74
2023/04/17 07:11:06;;;;;;;26.73;15.23;;;7.90;99.90;;;;;;4206412;28;20200;-74
2023/04/17 07:13:08;;;;;;;33.63;18.20;;;7.90;99.90;;;;;;4214177;28;20719;-73
2023/04/17 07:15:14;;;;;;;33.63;17.57;;;7.90;99.90;;;;;;4210218;28;20206;-74
2023/04/17 07:17:15;;;;;;;28.70;15.50;;;8.00;99.90;;;;;;4205027;28;20279;-73
2023/04/17 07:19:17;;;;;;;30.50;16.80;;;8.00;99.90;;;;;;4206328;28;20303;-74
2023/04/17 07:21:19;;;;;;;28.53;16.20;;;8.00;99.90;;;;;;4205831;28;20205;-74
2023/04/17 07:23:23;;;;;;;26.83;15.80;;;8.00;99.90;;;;;;4209473;28;20280;-74
2023/04/17 07:25:25;;;;;;;30.57;15.97;;;8.00;99.90;;;;;;4205476;28;20553;-74
2023/04/17 07:27:27;;;;;;;29.77;15.63;;;8.10;99.90;;;;;;4211424;28;20212;-73
2023/04/17 07:29:29;;;;;;;29.00;15.93;;;8.10;99.90;;;;;;4208999;28;20222;-74
2023/04/17 07:31:31;;;;;;;24.10;14.70;;;8.10;99.90;;;;;;4208900;28;20455;-74
2023/04/17 07:33:33;;;;;;;27.00;16.37;;;8.10;99.90;;;;;;4213631;28;20231;-74
2023/04/17 07:35:36;;;;;;;30.10;16.30;;;8.20;99.90;;;;;;4210909;28;20695;-74
2023/04/17 07:37:38;;;;;;;25.43;15.07;;;8.20;99.90;;;;;;4190624;28;20205;-74
2023/04/17 07:39:42;;;;;;;27.73;15.67;;;8.20;99.90;;;;;;4206776;28;20574;-74
2023/04/17 07:41:44;;;;;;;31.57;16.07;;;8.20;99.90;;;;;;4190902;28;20234;-74
2023/04/17 07:43:45;;;;;;;25.97;15.10;;;8.20;99.90;;;;;;4209546;28;20576;-74
2023/04/17 07:45:47;;;;;;;27.33;15.80;;;8.30;99.90;;;;;;4211047;28;20248;-74
2023/04/17 07:47:51;;;;;;;25.80;15.17;;;8.30;99.90;;;;;;4202916;28;20293;-74
2023/04/17 07:49:52;;;;;;;26.83;15.27;;;8.40;99.90;;;;;;4191083;28;20233;-74
2023/04/17 07:51:54;;;;;;;26.83;15.53;;;8.40;99.90;;;;;;4210546;28;20285;-74
2023/04/17 07:53:56;;;;;;;24.00;14.43;;;8.40;99.90;;;;;;4205467;28;20238;-74
2023/04/17 07:56:00;;;;;;;26.00;14.90;;;8.40;99.90;;;;;;4205099;28;20289;-74
2023/04/17 07:58:02;;;;;;;26.57;15.07;;;8.50;99.90;;;;;;4211686;28;20281;-74
2023/04/17 08:00:07;;;;;;;26.53;14.27;;;8.50;99.90;;;;;;4209654;28;20841;-74
2023/04/17 08:02:10;;;;;;;27.90;15.20;;;8.50;99.90;;;;;;4205755;28;20207;-74
2023/04/17 08:04:12;;;;;;;26.50;14.67;;;8.60;99.90;;;;;;4207952;28;20200;-74
2023/04/17 08:06:14;;;;;;;25.93;14.57;;;8.60;99.90;;;;;;4212697;28;20787;-74
2023/04/17 08:08:16;;;;;;;25.43;14.40;;;8.60;99.90;;;;;;4194283;28;20244;-74
2023/04/17 08:10:18;;;;;;;25.93;13.73;;;8.60;99.90;;;;;;4208681;28;20667;-74
2023/04/17 08:12:21;;;;;;;23.03;14.03;;;8.70;99.90;;;;;;4209629;28;20667;-74
2023/04/17 08:14:24;;;;;;;25.17;14.33;;;8.70;99.90;;;;;;4206566;28;20807;-74
2023/04/17 08:16:26;;;;;;;22.50;13.87;;;8.70;99.90;;;;;;4204625;28;20619;-74
2023/04/17 08:18:28;;;;;;;25.67;15.03;;;8.80;99.90;;;;;;4209546;28;20317;-74
2023/04/17 08:20:30;;;;;;;22.30;13.47;;;8.90;99.90;;;;;;4211132;28;20771;-74
2023/04/17 08:22:31;;;;;;;23.50;13.73;;;8.90;99.90;;;;;;4207782;28;20211;-74
2023/04/17 08:24:33;;;;;;;22.77;13.17;;;8.90;99.90;;;;;;4207063;28;20936;-74
2023/04/17 08:26:35;;;;;;;24.07;14.23;;;9.00;99.90;;;;;;4209963;28;20671;-74
2023/04/17 08:28:39;;;;;;;25.83;14.93;;;9.00;99.90;;;;;;4209421;28;20254;-78
2023/04/17 08:30:41;;;;;;;25.87;14.80;;;9.00;99.90;;;;;;4209604;28;20243;-74
2023/04/17 08:32:44;;;;;;;23.53;13.53;;;9.10;99.90;;;;;;4215594;28;20208;-74
2023/04/17 08:34:46;;;;;;;24.03;14.37;;;9.10;99.90;;;;;;4207537;28;20563;-73
2023/04/17 08:36:48;;;;;;;21.10;13.97;;;9.20;99.90;;;;;;4209534;28;20955;-73
2023/04/17 08:38:51;;;;;;;21.37;12.80;;;9.20;99.90;;;;;;4205190;28;20238;-73
2023/04/17 08:40:55;;;;;;;24.33;13.83;;;9.30;99.90;;;;;;4207895;28;20274;-73
2023/04/17 08:43:01;;;;;;;20.70;13.33;;;9.30;99.90;;;;;;4192278;28;20896;-73
2023/04/17 08:45:06;;;;;;;23.67;13.03;;;9.40;99.90;;;;;;4204838;28;20286;-74
2023/04/17 08:47:08;;;;;;;20.50;12.40;;;9.40;99.90;;;;;;4190893;28;20957;-73
2023/04/17 08:49:10;;;;;;;25.23;13.73;;;9.40;99.90;;;;;;4186625;28;20318;-73
2023/04/17 08:51:13;;;;;;;23.50;13.37;;;9.50;99.90;;;;;;4209420;28;20204;-74
2023/04/17 08:53:15;;;;;;;22.17;13.03;;;9.50;99.90;;;;;;4190261;28;20208;-73
2023/04/17 08:55:19;;;;;;;22.17;12.77;;;9.60;99.90;;;;;;4210247;28;20211;-73
2023/04/17 08:57:21;;;;;;;22.03;13.60;;;9.70;99.90;;;;;;4209328;28;20230;-73
2023/04/17 08:59:23;;;;;;;22.90;13.30;;;9.70;99.90;;;;;;4206173;28;20266;-74
2023/04/17 09:01:27;;;;;;;22.17;13.90;;;9.80;99.90;;;;;;4208943;28;20204;-73
2023/04/17 09:03:40;;;;;;;19.37;12.30;;;9.90;99.90;;;;;;4192318;28;20746;-73
2023/04/17 09:05:44;;;;;;;20.87;12.40;;;9.90;99.90;;;;;;4207936;28;20243;-73
2023/04/17 09:07:47;;;;;;;22.03;12.23;;;10.00;99.90;;;;;;4210891;28;20686;-73
2023/04/17 09:09:50;;;;;;;18.70;11.60;;;10.00;99.90;;;;;;4206572;28;20311;-73
2023/04/17 09:12:10;;;;;;;18.17;11.50;;;10.10;99.90;;;;;;4191109;28;20703;-73
2023/04/17 09:14:29;;;;;;;20.53;11.53;;;10.20;99.90;;;;;;4207643;28;20842;-73
2023/04/17 09:16:34;;;;;;;19.37;11.97;;;10.30;99.90;;;;;;4209656;28;20287;-73
2023/04/17 09:18:37;;;;;;;17.93;11.30;;;10.30;99.90;;;;;;4206541;28;20231;-74
2023/04/17 09:20:49;;;;;;;19.20;10.60;;;10.40;99.90;;;;;;4191150;28;20624;-74
2023/04/17 09:23:00;;;;;;;18.53;11.27;;;10.40;99.90;;;;;;4208568;28;20201;-74
2023/04/17 09:25:02;;;;;;;16.73;10.90;;;10.40;99.90;;;;;;4208257;28;20212;-74
2023/04/17 09:27:20;;;;;;;17.77;11.03;;;10.40;99.90;;;;;;4187990;28;20205;-74
2023/04/17 09:29:22;;;;;;;20.50;11.00;;;10.40;99.90;;;;;;4206889;28;20256;-73
2023/04/17 09:31:26;;;;;;;16.47;10.37;;;10.40;99.90;;;;;;4209803;28;20208;-74
2023/04/17 09:33:30;;;;;;;16.00;10.27;;;10.50;99.90;;;;;;4206951;28;20311;-74
2023/04/17 09:35:32;;;;;;;17.33;9.93;;;10.50;99.90;;;;;;4207874;28;20295;-74
2023/04/17 09:37:50;;;;;;;16.73;10.30;;;10.50;99.90;;;;;;4210585;28;20205;-73
2023/04/17 09:39:57;;;;;;;15.90;10.00;;;10.60;99.90;;;;;;4208334;28;20227;-74
2023/04/17 09:42:02;;;;;;;18.37;9.67;;;10.60;99.90;;;;;;4187278;28;20839;-74
2023/04/17 09:44:05;;;;;;;14.80;9.77;;;10.60;99.90;;;;;;4210123;28;20208;-74
2023/04/17 09:46:07;;;;;;;16.87;10.10;;;10.70;99.90;;;;;;4210762;28;20291;-73
2023/04/17 09:48:10;;;;;;;16.30;10.23;;;10.70;99.90;;;;;;4212289;28;20214;-74
2023/04/17 09:50:16;;;;;;;16.03;10.13;;;10.80;99.90;;;;;;4209030;28;20251;-74
2023/04/17 09:52:22;;;;;;;16.13;9.10;;;10.90;99.90;;;;;;4212911;28;20213;-74
2023/04/17 09:54:25;;;;;;;15.43;9.67;;;10.90;99.90;;;;;;4212438;28;20658;-73
2023/04/17 09:56:28;;;;;;;16.00;9.40;;;11.00;99.90;;;;;;4212185;28;20236;-74
2023/04/17 09:58:30;;;;;;;15.90;9.70;;;11.10;99.90;;;;;;4209514;28;20233;-77
2023/04/17 10:00:32;;;;;;;16.50;10.10;;;11.10;99.90;;;;;;4210078;28;20282;-75
2023/04/17 10:02:34;;;;;;;16.47;10.60;;;11.20;99.90;;;;;;4197479;28;20206;-71
2023/04/17 10:04:39;;;;;;;15.60;10.20;;;11.30;99.90;;;;;;4213450;28;20258;-74
2023/04/17 10:06:42;;;;;;;14.33;10.20;;;11.30;99.90;;;;;;4195395;28;20664;-76
2023/04/17 10:08:44;;;;;;;14.93;10.13;;;11.40;99.90;;;;;;4209700;28;20220;-72
2023/04/17 10:10:49;;;;;;;16.93;10.37;;;11.40;99.90;;;;;;4207859;28;20199;-74
2023/04/17 10:12:55;;;;;;;13.97;9.40;;;11.50;99.90;;;;;;4215157;28;20217;-76
2023/04/17 10:14:57;;;;;;;16.60;10.00;;;11.50;99.90;;;;;;4220779;28;20215;-74
2023/04/17 10:16:59;;;;;;;14.77;9.57;;;11.60;99.90;;;;;;4207228;28;20251;-76
2023/04/17 10:19:28;;;;;;;17.37;10.23;;;11.60;99.90;;;;;;4193764;28;20280;-72
2023/04/17 10:21:30;;;;;;;13.40;9.33;;;11.70;99.90;;;;;;4217553;28;20217;-74
2023/04/17 10:23:34;;;;;;;15.87;10.03;;;11.70;99.90;;;;;;4214138;28;21010;-72
2023/04/17 10:25:36;;;;;;;15.60;10.43;;;11.70;99.90;;;;;;4190761;28;20201;-72
2023/04/17 10:28:02;;;;;;;15.37;9.73;;;11.80;99.90;;;;;;4207340;28;20231;-72
2023/04/17 10:30:06;;;;;;;16.60;10.50;;;11.80;99.90;;;;;;4207962;28;20229;-72